createdAt,value
2022-12-23T00:01:26.844Z,17.83
2022-12-23T00:03:57.283Z,19.27
2022-12-23T00:06:24.051Z,19.77
2022-12-23T00:08:57.947Z,20.83
2022-12-23T00:11:25.969Z,23.38
2022-12-23T00:14:14.841Z,22.25
2022-12-23T00:16:47.073Z,20.48
2022-12-23T00:19:13.766Z,17.85
2022-12-23T00:21:40.422Z,19.35
2022-12-23T00:24:07.188Z,21.50
2022-12-23T00:26:33.795Z,20.80
2022-12-23T00:29:00.568Z,21.67
2022-12-23T00:31:27.325Z,25.70
2022-12-23T00:33:54.383Z,21.70
2022-12-23T00:36:24.259Z,20.20
2022-12-23T00:39:09.906Z,20.48
2022-12-23T00:41:55.365Z,21.25
2022-12-23T00:44:22.124Z,18.27
2022-12-23T00:46:49.028Z,18.63
2022-12-23T00:49:36.970Z,20.60
2022-12-23T00:52:05.097Z,21.13
2022-12-23T00:54:31.999Z,16.02
2022-12-23T00:56:59.796Z,15.27
2022-12-23T00:59:27.029Z,19.63
2022-12-23T01:02:12.624Z,16.40
2022-12-23T01:04:57.897Z,12.80
2022-12-23T01:07:25.059Z,16.27
2022-12-23T01:09:51.732Z,13.82
2022-12-23T01:12:18.693Z,15.73
2022-12-23T01:14:45.352Z,13.25
2022-12-23T01:17:12.135Z,14.32
2022-12-23T01:19:39.154Z,15.32
2022-12-23T01:22:05.924Z,22.55
2022-12-23T01:24:33.303Z,16.45
2022-12-23T01:27:00.727Z,20.40
2022-12-23T01:29:28.830Z,23.50
2022-12-23T01:31:55.813Z,25.60
2022-12-23T01:34:22.574Z,21.75
2022-12-23T01:36:49.240Z,19.13
2022-12-23T01:39:15.948Z,19.02
2022-12-23T01:42:01.258Z,18.88
2022-12-23T01:44:49.844Z,17.73
2022-12-23T01:50:02.685Z,14.63
2022-12-23T01:52:30.387Z,24.13
2022-12-23T01:54:57.749Z,18.40
2022-12-23T01:57:24.928Z,19.00
2022-12-23T02:00:10.869Z,16.83
2022-12-23T02:02:58.038Z,25.30
2022-12-23T02:05:24.925Z,21.20
2022-12-23T02:08:11.691Z,23.85
2022-12-23T02:11:06.262Z,18.75
2022-12-23T02:14:16.197Z,15.70
2022-12-23T02:16:49.822Z,17.08
2022-12-23T02:19:55.058Z,14.38
2022-12-23T02:22:55.076Z,16.23
2022-12-23T02:25:37.762Z,14.82
2022-12-23T02:28:32.747Z,16.60
2022-12-23T02:31:16.918Z,15.13
2022-12-23T02:34:07.662Z,15.93
2022-12-23T02:37:06.832Z,20.60
2022-12-23T02:39:38.020Z,22.10
2022-12-23T02:42:15.640Z,13.07
2022-12-23T02:45:00.096Z,14.85
2022-12-23T02:48:02.776Z,15.23
2022-12-23T02:50:36.575Z,22.25
2022-12-23T02:53:37.493Z,15.32
2022-12-23T02:56:07.012Z,19.58
2022-12-23T02:58:40.149Z,15.70
2022-12-23T03:01:08.186Z,16.17
2022-12-23T03:03:36.573Z,18.25
2022-12-23T03:06:14.201Z,17.98
2022-12-23T03:08:43.535Z,16.55
2022-12-23T03:11:13.522Z,16.63
2022-12-23T03:14:15.333Z,21.95
2022-12-23T03:17:02.267Z,17.83
2022-12-23T03:19:38.444Z,21.58
2022-12-23T03:22:30.778Z,17.35
2022-12-23T03:25:18.786Z,17.48
2022-12-23T03:27:54.821Z,16.20
2022-12-23T03:30:23.664Z,17.02
2022-12-23T03:32:55.827Z,16.75
2022-12-23T03:35:38.106Z,19.77
2022-12-23T03:38:07.343Z,14.57
2022-12-23T03:40:43.208Z,14.23
2022-12-23T03:43:16.797Z,13.40
2022-12-23T03:45:48.824Z,13.75
2022-12-23T03:48:40.505Z,13.88
2022-12-23T03:51:18.354Z,13.65
2022-12-23T03:54:11.928Z,13.13
2022-12-23T03:56:43.146Z,12.60
2022-12-23T03:59:26.741Z,12.35
2022-12-23T04:01:56.512Z,13.68
2022-12-23T04:04:39.432Z,13.75
2022-12-23T04:07:15.764Z,12.00
2022-12-23T04:09:43.383Z,10.93
2022-12-23T04:12:10.730Z,10.73
2022-12-23T04:14:44.975Z,11.05
2022-12-23T04:17:11.723Z,15.98
2022-12-23T04:19:38.338Z,11.85
2022-12-23T04:22:05.001Z,11.38
2022-12-23T04:24:31.620Z,12.43
2022-12-23T04:26:58.263Z,12.57
2022-12-23T04:29:24.963Z,12.90
2022-12-23T04:31:51.651Z,12.32
2022-12-23T04:34:18.338Z,13.90
2022-12-23T04:36:45.097Z,13.02
2022-12-23T04:39:11.752Z,13.32
2022-12-23T04:41:38.422Z,12.98
2022-12-23T04:44:05.245Z,12.73
2022-12-23T04:46:31.930Z,13.75
2022-12-23T04:48:58.593Z,13.23
2022-12-23T04:51:25.245Z,13.02
2022-12-23T04:53:51.886Z,13.27
2022-12-23T04:56:18.624Z,13.73
2022-12-23T04:58:45.240Z,15.45
2022-12-23T05:01:12.985Z,14.13
2022-12-23T05:03:40.547Z,15.30
2022-12-23T05:06:07.968Z,15.18
2022-12-23T05:08:34.794Z,14.27
2022-12-23T05:11:01.448Z,26.63
2022-12-23T05:13:28.114Z,14.75
2022-12-23T05:15:55.294Z,15.88
2022-12-23T05:18:22.214Z,19.15
2022-12-23T05:20:49.376Z,15.40
2022-12-23T05:23:16.130Z,15.63
2022-12-23T05:25:42.815Z,14.65
2022-12-23T05:28:09.583Z,14.10
2022-12-23T05:30:36.458Z,13.93
2022-12-23T05:33:03.219Z,16.70
2022-12-23T05:35:29.914Z,15.10
2022-12-23T05:37:57.689Z,13.18
2022-12-23T05:40:29.519Z,12.10
2022-12-23T05:42:58.986Z,12.00
2022-12-23T05:45:25.726Z,11.80
2022-12-23T05:47:52.461Z,11.43
2022-12-23T05:50:19.102Z,11.85
2022-12-23T05:52:45.764Z,10.70
2022-12-23T05:55:12.502Z,10.50
2022-12-23T05:57:39.219Z,11.07
2022-12-23T06:00:06.603Z,9.27
2022-12-23T06:02:33.493Z,11.00
2022-12-23T06:05:00.283Z,9.88
2022-12-23T06:07:26.947Z,9.25
2022-12-23T06:09:53.564Z,9.57
2022-12-23T06:12:20.332Z,10.02
2022-12-23T06:14:47.008Z,9.98
2022-12-23T06:17:13.650Z,9.82
2022-12-23T06:19:40.403Z,8.95
2022-12-23T06:22:07.027Z,8.38
2022-12-23T06:24:33.695Z,9.13
2022-12-23T06:27:00.401Z,9.20
2022-12-23T06:29:27.049Z,9.52
2022-12-23T06:31:53.975Z,9.23
2022-12-23T06:34:21.090Z,9.77
2022-12-23T06:36:48.991Z,9.85
2022-12-23T06:39:15.700Z,10.00
2022-12-23T06:41:42.370Z,9.30
2022-12-23T06:44:10.048Z,9.82
2022-12-23T06:46:36.728Z,10.10
2022-12-23T06:49:09.078Z,10.07
2022-12-23T06:51:39.385Z,10.02
2022-12-23T06:54:06.044Z,9.48
2022-12-23T06:56:35.922Z,10.10
2022-12-23T06:59:02.553Z,9.45
2022-12-23T07:01:29.291Z,9.93
2022-12-23T07:03:56.070Z,9.68
2022-12-23T07:06:22.744Z,9.48
2022-12-23T07:08:50.662Z,9.98
2022-12-23T07:11:17.327Z,9.98
2022-12-23T07:13:45.621Z,11.07
2022-12-23T07:16:12.359Z,13.63
2022-12-23T07:18:39.017Z,10.07
2022-12-23T07:21:08.836Z,10.80
2022-12-23T07:23:40.147Z,10.95
2022-12-23T07:26:06.769Z,11.05
2022-12-23T07:28:33.412Z,10.77
2022-12-23T07:31:00.135Z,11.00
2022-12-23T07:33:27.257Z,11.10
2022-12-23T07:35:58.807Z,10.35
2022-12-23T07:38:25.467Z,10.52
2022-12-23T07:40:52.091Z,10.70
2022-12-23T07:43:18.771Z,10.55
2022-12-23T07:45:45.973Z,9.55
2022-12-23T07:48:13.061Z,10.05
2022-12-23T07:50:39.685Z,9.32
2022-12-23T07:53:06.339Z,10.30
2022-12-23T07:55:33.006Z,9.65
2022-12-23T07:57:59.745Z,9.13
2022-12-23T08:00:26.535Z,9.95
2022-12-23T08:02:53.297Z,9.43
2022-12-23T08:05:20.353Z,9.20
2022-12-23T08:07:49.824Z,9.20
2022-12-23T08:10:16.748Z,9.52
2022-12-23T08:12:43.396Z,9.57
2022-12-23T08:15:10.229Z,9.55
2022-12-23T08:17:36.931Z,9.75
2022-12-23T08:20:04.146Z,9.73
2022-12-23T08:22:32.123Z,10.70
2022-12-23T08:24:59.730Z,10.73
2022-12-23T08:27:26.755Z,10.80
2022-12-23T08:29:53.429Z,11.77
2022-12-23T08:32:20.109Z,10.75
2022-12-23T08:34:46.817Z,11.65
2022-12-23T08:37:13.606Z,11.90
2022-12-23T08:39:40.254Z,13.00
2022-12-23T08:42:07.952Z,13.98
2022-12-23T08:44:34.691Z,14.17
2022-12-23T08:47:03.344Z,15.63
2022-12-23T08:51:56.750Z,15.65
2022-12-23T08:54:23.856Z,16.27
2022-12-23T08:56:50.653Z,16.85
2022-12-23T08:59:19.632Z,17.63
2022-12-23T09:01:47.241Z,17.08
2022-12-23T09:04:14.060Z,17.30
2022-12-23T09:06:42.226Z,17.33
2022-12-23T09:09:11.467Z,17.38
2022-12-23T09:11:39.340Z,16.95
2022-12-23T09:14:08.458Z,17.80
2022-12-23T09:16:35.420Z,18.65
2022-12-23T09:19:02.237Z,18.08
2022-12-23T09:21:29.345Z,16.48
2022-12-23T09:23:56.101Z,17.20
2022-12-23T09:26:25.997Z,31.42
2022-12-23T09:28:53.645Z,31.15
2022-12-23T09:31:21.357Z,22.98
2022-12-23T09:33:50.190Z,31.73
2022-12-23T09:36:17.581Z,25.33
2022-12-23T09:38:44.294Z,37.97
2022-12-23T09:41:34.891Z,22.55
2022-12-23T09:44:10.581Z,53.03
2022-12-23T09:46:46.739Z,27.85
2022-12-23T09:49:18.478Z,33.25
2022-12-23T09:51:47.960Z,25.33
2022-12-23T09:54:25.056Z,21.63
2022-12-23T09:57:28.761Z,21.52
2022-12-23T10:00:09.666Z,30.25
2022-12-23T10:03:08.456Z,16.50
2022-12-23T10:06:01.258Z,17.92
2022-12-23T10:08:54.416Z,15.80
2022-12-23T10:11:25.135Z,16.58
2022-12-23T10:13:56.644Z,15.32
2022-12-23T10:16:27.512Z,17.10
2022-12-23T10:19:06.602Z,17.38
2022-12-23T10:21:49.116Z,15.55
2022-12-23T10:24:33.375Z,15.15
2022-12-23T10:27:04.782Z,14.93
2022-12-23T10:29:32.740Z,14.98
2022-12-23T10:32:11.978Z,13.98
2022-12-23T10:34:47.477Z,14.13
2022-12-23T10:37:44.923Z,13.35
2022-12-23T10:40:27.574Z,12.70
2022-12-23T10:43:12.941Z,12.45
2022-12-23T10:46:01.151Z,12.77
2022-12-23T10:48:39.195Z,12.93
2022-12-23T10:51:16.407Z,12.80
2022-12-23T10:53:54.026Z,12.95
2022-12-23T10:56:21.827Z,13.43
2022-12-23T10:58:54.469Z,12.48
2022-12-23T11:01:27.034Z,13.40
2022-12-23T11:04:07.721Z,13.80
2022-12-23T11:06:39.390Z,14.18
2022-12-23T11:09:11.007Z,14.50
2022-12-23T11:12:01.436Z,14.60
2022-12-23T11:14:35.417Z,15.07
2022-12-23T11:17:06.060Z,15.00
2022-12-23T11:19:32.750Z,16.80
2022-12-23T11:22:01.037Z,18.60
2022-12-23T11:24:35.335Z,17.85
2022-12-23T11:27:11.260Z,18.80
2022-12-23T11:29:43.981Z,19.98
2022-12-23T11:32:36.804Z,17.60
2022-12-23T11:35:03.860Z,20.58
2022-12-23T11:37:36.798Z,20.00
2022-12-23T11:40:14.813Z,20.75
2022-12-23T11:42:42.231Z,21.88
2022-12-23T11:45:09.057Z,21.05
2022-12-23T11:47:41.980Z,22.92
2022-12-23T11:50:39.601Z,25.05
2022-12-23T11:53:20.939Z,27.30
2022-12-23T11:56:10.453Z,25.17
2022-12-23T11:58:48.229Z,27.30
2022-12-23T12:01:18.862Z,25.35
2022-12-23T12:03:50.991Z,28.08
2022-12-23T12:06:19.784Z,26.75
2022-12-23T12:08:51.366Z,27.30
2022-12-23T12:11:22.048Z,27.10
2022-12-23T12:13:53.726Z,29.55
2022-12-23T12:16:41.839Z,26.73
2022-12-23T12:19:20.765Z,26.80
2022-12-23T12:21:49.314Z,25.23
2022-12-23T12:24:25.337Z,26.58
2022-12-23T12:26:55.274Z,23.10
2022-12-23T12:29:36.667Z,22.08
2022-12-23T12:32:05.132Z,24.50
2022-12-23T12:34:57.036Z,23.83
2022-12-23T12:37:39.548Z,22.80
2022-12-23T12:40:28.292Z,23.55
2022-12-23T12:43:26.162Z,23.85
2022-12-23T12:46:23.051Z,22.98
2022-12-23T12:49:15.147Z,24.15
2022-12-23T12:52:06.917Z,22.63
2022-12-23T12:54:53.138Z,24.65
2022-12-23T12:57:23.481Z,23.77
2022-12-23T12:59:58.554Z,23.85
2022-12-23T13:02:52.470Z,23.88
2022-12-23T13:05:40.478Z,23.95
2022-12-23T13:08:33.492Z,24.63
2022-12-23T13:11:10.785Z,24.40
2022-12-23T13:14:01.555Z,23.50
2022-12-23T13:16:33.774Z,21.58
2022-12-23T13:19:42.863Z,20.33
2022-12-23T13:22:13.862Z,20.33
2022-12-23T13:25:15.180Z,19.00
2022-12-23T13:27:44.903Z,19.20
2022-12-23T13:30:14.442Z,18.25
2022-12-23T13:32:51.895Z,17.73
2022-12-23T13:35:40.794Z,17.73
2022-12-23T13:38:41.777Z,17.30
2022-12-23T13:41:32.376Z,15.15
2022-12-23T13:44:07.524Z,16.90
2022-12-23T13:46:57.298Z,16.70
2022-12-23T13:49:42.550Z,17.77
2022-12-23T13:52:15.224Z,15.88
2022-12-23T13:55:00.012Z,16.77
2022-12-23T13:57:45.450Z,18.00
2022-12-23T14:00:18.232Z,17.75
2022-12-23T14:02:52.718Z,16.75
2022-12-23T14:05:36.741Z,17.83
2022-12-23T14:08:20.559Z,16.17
2022-12-23T14:11:23.292Z,15.32
2022-12-23T14:13:50.021Z,17.15
2022-12-23T14:16:19.502Z,17.63
2022-12-23T14:19:06.727Z,18.85
2022-12-23T14:21:55.118Z,18.63
2022-12-23T14:27:25.163Z,17.65
2022-12-23T14:30:11.684Z,20.80
2022-12-23T14:32:49.300Z,16.75
2022-12-23T14:35:26.382Z,15.93
2022-12-23T14:38:08.047Z,16.58
2022-12-23T14:40:37.499Z,15.85
2022-12-23T14:43:22.201Z,16.20
2022-12-23T14:45:55.158Z,16.35
2022-12-23T14:48:44.359Z,15.48
2022-12-23T14:51:25.305Z,17.02
2022-12-23T14:53:56.653Z,18.60
2022-12-23T14:56:47.660Z,18.92
2022-12-23T14:59:52.134Z,20.08
2022-12-23T15:02:30.215Z,19.90
2022-12-23T15:04:58.570Z,24.17
2022-12-23T15:07:35.663Z,25.58
2022-12-23T15:10:06.451Z,22.95
2022-12-23T15:12:41.968Z,22.27
2022-12-23T15:15:21.135Z,24.58
2022-12-23T15:17:48.703Z,23.27
2022-12-23T15:20:20.266Z,21.30
2022-12-23T15:22:48.187Z,19.00
2022-12-23T15:25:32.872Z,18.48
2022-12-23T15:28:02.503Z,16.90
2022-12-23T15:30:34.849Z,16.80
2022-12-23T15:33:27.791Z,17.35
2022-12-23T15:35:54.145Z,17.60
2022-12-23T15:38:23.628Z,18.10
2022-12-23T15:40:59.342Z,18.63
2022-12-23T15:43:26.119Z,18.42
2022-12-23T15:45:53.642Z,21.02
2022-12-23T15:48:29.617Z,22.13
2022-12-23T15:51:03.459Z,22.30
2022-12-23T15:53:40.615Z,21.38
2022-12-23T15:56:18.107Z,20.45
2022-12-23T15:58:44.912Z,23.10
2022-12-23T16:01:16.373Z,24.10
2022-12-23T16:03:51.161Z,22.65
2022-12-23T16:06:22.506Z,22.02
2022-12-23T16:09:12.007Z,19.95
2022-12-23T16:11:59.432Z,22.70
2022-12-23T16:14:39.037Z,22.13
2022-12-23T16:17:08.391Z,24.55
2022-12-23T16:19:49.347Z,21.27
2022-12-23T16:22:35.611Z,21.40
2022-12-23T16:25:11.493Z,18.60
2022-12-23T16:27:46.096Z,22.60
2022-12-23T16:30:29.285Z,21.83
2022-12-23T16:32:59.556Z,23.83
2022-12-23T16:35:41.703Z,21.20
2022-12-23T16:38:18.290Z,21.65
2022-12-23T16:40:51.366Z,60.72
2022-12-23T16:43:18.956Z,63.97
2022-12-23T16:45:50.371Z,66.35
2022-12-23T16:48:33.805Z,29.27
2022-12-23T16:51:01.899Z,27.40
2022-12-23T16:53:28.608Z,24.15
2022-12-23T16:56:00.265Z,23.98
2022-12-23T16:58:27.729Z,31.85
2022-12-23T17:00:54.578Z,37.15
2022-12-23T17:03:21.454Z,30.02
2022-12-23T17:05:48.704Z,27.20
2022-12-23T17:08:15.759Z,21.02
2022-12-23T17:10:44.742Z,20.00
2022-12-23T17:13:13.958Z,19.98
2022-12-23T17:15:40.643Z,19.27
2022-12-23T17:18:13.062Z,21.38
2022-12-23T17:20:40.346Z,19.27
2022-12-23T17:23:09.986Z,19.25
2022-12-23T17:25:36.637Z,20.58
2022-12-23T17:28:10.431Z,19.75
2022-12-23T17:30:37.569Z,18.92
2022-12-23T17:33:04.351Z,20.10
2022-12-23T17:35:30.988Z,15.77
2022-12-23T17:37:57.617Z,16.90
2022-12-23T17:40:24.310Z,14.43
2022-12-23T17:42:51.022Z,16.00
2022-12-23T17:45:27.707Z,16.27
2022-12-23T17:47:54.714Z,15.57
2022-12-23T17:50:22.475Z,16.10
2022-12-23T17:52:50.617Z,16.70
2022-12-23T17:55:20.639Z,17.98
2022-12-23T17:57:47.924Z,16.58
2022-12-23T18:00:24.129Z,16.90
2022-12-23T18:02:56.421Z,15.63
2022-12-23T18:05:30.366Z,14.65
2022-12-23T18:07:59.909Z,16.67
2022-12-23T18:10:39.062Z,13.70
2022-12-23T18:13:09.627Z,14.27
2022-12-23T18:15:39.206Z,17.08
2022-12-23T18:18:31.265Z,17.85
2022-12-23T18:21:06.748Z,18.23
2022-12-23T18:23:34.091Z,13.50
2022-12-23T18:26:01.255Z,17.13
2022-12-23T18:28:28.035Z,16.92
2022-12-23T18:30:56.234Z,15.93
2022-12-23T18:33:24.190Z,14.30
2022-12-23T18:35:51.236Z,11.80
2022-12-23T18:38:18.493Z,24.63
2022-12-23T18:40:45.559Z,24.05
2022-12-23T18:43:24.104Z,23.55
2022-12-23T18:45:53.520Z,29.10
2022-12-23T18:48:21.689Z,37.90
2022-12-23T18:50:48.710Z,42.92
2022-12-23T18:53:24.524Z,48.58
2022-12-23T18:55:52.670Z,62.13
2022-12-23T18:58:20.072Z,57.08
2022-12-23T19:00:47.671Z,59.25
2022-12-23T19:03:29.272Z,52.88
2022-12-23T19:05:58.003Z,68.57
2022-12-23T19:10:55.731Z,65.82
2022-12-23T19:13:22.692Z,68.40
2022-12-23T19:15:50.645Z,69.28
2022-12-23T19:18:20.687Z,60.17
2022-12-23T19:20:48.794Z,74.95
2022-12-23T19:23:16.294Z,56.80
2022-12-23T19:25:54.437Z,61.25
2022-12-23T19:28:21.896Z,65.93
2022-12-23T19:30:48.895Z,60.08
2022-12-23T19:33:15.766Z,67.95
2022-12-23T19:35:42.921Z,82.38
2022-12-23T19:38:09.649Z,75.50
2022-12-23T19:40:36.384Z,64.05
2022-12-23T19:43:03.548Z,75.32
2022-12-23T19:45:30.310Z,61.83
2022-12-23T19:47:56.989Z,86.55
2022-12-23T19:50:23.815Z,67.32
2022-12-23T19:52:51.579Z,75.72
2022-12-23T19:55:18.349Z,75.28
2022-12-23T19:57:45.003Z,70.40
2022-12-23T20:00:12.389Z,71.10
2022-12-23T20:02:39.193Z,68.57
2022-12-23T20:05:06.299Z,75.70
2022-12-23T20:07:34.716Z,78.57
2022-12-23T20:10:01.396Z,77.00
2022-12-23T20:12:28.030Z,78.70
2022-12-23T20:14:54.657Z,67.75
2022-12-23T20:17:21.384Z,71.10
2022-12-23T20:19:48.457Z,59.72
2022-12-23T20:22:15.242Z,72.00
2022-12-23T20:24:41.852Z,65.70
2022-12-23T20:27:11.921Z,66.78
2022-12-23T20:29:39.323Z,63.50
2022-12-23T20:32:06.151Z,62.58
2022-12-23T20:34:38.677Z,57.17
2022-12-23T20:37:07.337Z,59.92
2022-12-23T20:39:34.560Z,60.30
2022-12-23T20:42:01.259Z,48.28
2022-12-23T20:44:36.882Z,44.50
2022-12-23T20:47:05.520Z,53.47
2022-12-23T20:49:32.432Z,49.45
2022-12-23T20:51:59.231Z,46.17
2022-12-23T20:54:32.202Z,39.25
2022-12-23T20:57:01.028Z,25.58
2022-12-23T20:59:27.754Z,24.38
2022-12-23T21:01:54.976Z,30.67
2022-12-23T21:04:22.565Z,37.95
2022-12-23T21:06:49.627Z,33.13
2022-12-23T21:09:16.741Z,24.45
2022-12-23T21:11:45.986Z,31.90
2022-12-23T21:14:13.664Z,32.78
2022-12-23T21:16:40.851Z,29.63
2022-12-23T21:19:09.082Z,32.58
2022-12-23T21:21:35.854Z,29.60
2022-12-23T21:24:04.496Z,31.90
2022-12-23T21:26:32.981Z,39.33
2022-12-23T21:29:01.187Z,33.60
2022-12-23T21:31:30.395Z,27.42
2022-12-23T21:33:58.404Z,32.17
2022-12-23T21:36:27.831Z,31.77
2022-12-23T21:38:54.747Z,36.08
2022-12-23T21:41:24.266Z,28.27
2022-12-23T21:43:51.740Z,23.88
2022-12-23T21:46:21.137Z,27.33
2022-12-23T21:48:48.475Z,20.60
2022-12-23T21:51:18.193Z,21.85
2022-12-23T21:53:46.655Z,26.38
2022-12-23T21:56:15.789Z,23.13
2022-12-23T21:58:43.352Z,16.08
2022-12-23T22:01:20.720Z,22.27
2022-12-23T22:03:49.376Z,21.75
2022-12-23T22:06:18.785Z,18.00
2022-12-23T22:08:45.881Z,25.30
2022-12-23T22:11:22.406Z,17.45
2022-12-23T22:13:49.237Z,25.52
2022-12-23T22:16:21.969Z,24.58
2022-12-23T22:18:49.859Z,18.27
2022-12-23T22:21:19.291Z,23.43
2022-12-23T22:23:46.645Z,28.40
2022-12-23T22:26:20.241Z,20.00
2022-12-23T22:28:50.883Z,19.60
2022-12-23T22:31:21.290Z,20.13
2022-12-23T22:33:48.131Z,24.52
2022-12-23T22:36:16.217Z,28.25
2022-12-23T22:38:43.595Z,21.48
2022-12-23T22:41:11.040Z,23.02
2022-12-23T22:43:37.916Z,24.83
2022-12-23T22:46:05.362Z,19.88
2022-12-23T22:48:32.327Z,28.42
2022-12-23T22:51:13.738Z,23.10
2022-12-23T22:53:40.657Z,23.10
2022-12-23T22:56:08.275Z,17.52
2022-12-23T22:58:35.104Z,39.15
2022-12-23T23:01:01.866Z,25.33
2022-12-23T23:03:29.239Z,26.50
2022-12-23T23:05:56.864Z,25.92
2022-12-23T23:08:24.516Z,30.30
2022-12-23T23:10:51.637Z,26.10
2022-12-23T23:13:18.369Z,27.23
2022-12-23T23:15:47.816Z,29.73
2022-12-23T23:18:14.737Z,25.85
2022-12-23T23:20:41.437Z,27.25
2022-12-23T23:23:08.304Z,24.30
2022-12-23T23:25:35.141Z,33.03
2022-12-23T23:28:01.840Z,26.33
2022-12-23T23:30:28.504Z,36.53
2022-12-23T23:32:55.107Z,26.52
2022-12-23T23:35:21.887Z,33.08
2022-12-23T23:37:48.646Z,29.55
2022-12-23T23:40:15.295Z,27.90
2022-12-23T23:42:42.000Z,27.05
2022-12-23T23:45:09.013Z,24.85
2022-12-23T23:47:35.618Z,38.05
2022-12-23T23:50:02.464Z,28.50
2022-12-23T23:52:29.196Z,30.73
2022-12-23T23:54:55.940Z,22.25
2022-12-23T23:57:23.424Z,34.45
2022-12-23T23:59:50.059Z,30.23
